AFR909 LEBL-LFMN
Flight info
| Callsign | AFR909 |
|---|---|
| Flight time | 0h 40m |
| Altitude | 30000 |
| Route | DALIN2J DALIN DCT ABLAK ABLAK8R |
| Aircraft | CONC/H-SDE2E3FGHIRYW/X |
Departure
| Time | 2026-05-04 15:32 |
|---|---|
| Airport | Josep Tarradellas Barcelona-El Prat Airport (LEBL) |
Arrival
| Time | 2026-05-04 16:13 |
|---|---|
| Airport | Nice-Côte d'Azur Airport (LFMN) |
| Time | Latitude | Longitude | Altitude | Speed | Heading |
|---|---|---|---|---|---|
| 2026-05-04 14:42 | 41.29901 | 2.06744 | 21 ft | 0 kts | 335° |
| 2026-05-04 15:09 | 41.29890 | 2.06750 | 27 ft | 4 kts | 333° |
| 2026-05-04 15:10 | 41.29849 | 2.06791 | 26 ft | 4 kts | 293° |
| 2026-05-04 15:10 | 41.29847 | 2.06814 | 27 ft | 0 kts | 245° |
| 2026-05-04 15:13 | 41.29845 | 2.06809 | 27 ft | 1 kts | 245° |
| 2026-05-04 15:13 | 41.29829 | 2.06766 | 27 ft | 10 kts | 241° |
| 2026-05-04 15:14 | 41.29768 | 2.06736 | 25 ft | 10 kts | 178° |
| 2026-05-04 15:14 | 41.29698 | 2.06767 | 25 ft | 11 kts | 169° |
| 2026-05-04 15:14 | 41.29640 | 2.06693 | 23 ft | 13 kts | 240° |
| 2026-05-04 15:14 | 41.29597 | 2.06576 | 23 ft | 15 kts | 245° |
| 2026-05-04 15:15 | 41.29552 | 2.06444 | 23 ft | 17 kts | 246° |
| 2026-05-04 15:15 | 41.29501 | 2.06292 | 24 ft | 19 kts | 245° |
| 2026-05-04 15:15 | 41.29472 | 2.06212 | 25 ft | 0 kts | 246° |
| 2026-05-04 15:16 | 41.29464 | 2.06186 | 23 ft | 5 kts | 246° |
| 2026-05-04 15:16 | 41.29442 | 2.06139 | 23 ft | 7 kts | 225° |
| 2026-05-04 15:16 | 41.29322 | 2.06136 | 24 ft | 11 kts | 165° |
| 2026-05-04 15:17 | 41.29245 | 2.06177 | 22 ft | 14 kts | 156° |
| 2026-05-04 15:17 | 41.29054 | 2.06320 | 21 ft | 16 kts | 118° |
| 2026-05-04 15:17 | 41.29014 | 2.06460 | 24 ft | 17 kts | 110° |
| 2026-05-04 15:18 | 41.29022 | 2.06602 | 23 ft | 16 kts | 68° |
| 2026-05-04 15:18 | 41.29074 | 2.06754 | 23 ft | 21 kts | 65° |
| 2026-05-04 15:18 | 41.29142 | 2.06951 | 23 ft | 23 kts | 65° |
| 2026-05-04 15:19 | 41.29193 | 2.07101 | 23 ft | 0 kts | 65° |
| 2026-05-04 15:21 | 41.29193 | 2.07102 | 23 ft | 1 kts | 65° |
| 2026-05-04 15:21 | 41.29199 | 2.07118 | 24 ft | 3 kts | 65° |
| 2026-05-04 15:21 | 41.29237 | 2.07229 | 25 ft | 11 kts | 65° |
| 2026-05-04 15:22 | 41.29273 | 2.07332 | 24 ft | 14 kts | 66° |
| 2026-05-04 15:22 | 41.29315 | 2.07460 | 23 ft | 11 kts | 65° |
| 2026-05-04 15:22 | 41.29363 | 2.07620 | 22 ft | 15 kts | 66° |
| 2026-05-04 15:23 | 41.29414 | 2.07771 | 22 ft | 21 kts | 66° |
| 2026-05-04 15:23 | 41.29478 | 2.07959 | 25 ft | 24 kts | 65° |
| 2026-05-04 15:23 | 41.29552 | 2.08175 | 22 ft | 27 kts | 66° |
| 2026-05-04 15:23 | 41.29597 | 2.08385 | 25 ft | 18 kts | 66° |
| 2026-05-04 15:24 | 41.29557 | 2.08554 | 23 ft | 12 kts | 153° |
| 2026-05-04 15:24 | 41.29364 | 2.08671 | 24 ft | 15 kts | 156° |
| 2026-05-04 15:25 | 41.29276 | 2.08725 | 24 ft | 14 kts | 155° |
| 2026-05-04 15:25 | 41.29180 | 2.08783 | 23 ft | 16 kts | 155° |
| 2026-05-04 15:25 | 41.29070 | 2.08849 | 22 ft | 18 kts | 156° |
| 2026-05-04 15:26 | 41.28966 | 2.09034 | 25 ft | 14 kts | 68° |
| 2026-05-04 15:26 | 41.29010 | 2.09159 | 23 ft | 17 kts | 64° |
| 2026-05-04 15:26 | 41.29124 | 2.09488 | 24 ft | 23 kts | 65° |
| 2026-05-04 15:27 | 41.29193 | 2.09692 | 23 ft | 26 kts | 66° |
| 2026-05-04 15:27 | 41.29253 | 2.09873 | 25 ft | 0 kts | 65° |
| 2026-05-04 15:29 | 41.29261 | 2.09896 | 23 ft | 5 kts | 65° |
| 2026-05-04 15:30 | 41.29243 | 2.10303 | 20 ft | 10 kts | 159° |
| 2026-05-04 15:30 | 41.29200 | 2.10262 | 22 ft | 0 kts | 239° |
| 2026-05-04 15:32 | 41.28785 | 2.09056 | 26 ft | 185 kts | 245° |
| 2026-05-04 15:32 | 41.27227 | 2.04788 | 2297 ft | 313 kts | 237° |
| 2026-05-04 15:33 | 41.23793 | 2.01919 | 5432 ft | 248 kts | 175° |
| 2026-05-04 15:34 | 41.18142 | 2.04642 | 8723 ft | 344 kts | 158° |
| 2026-05-04 15:34 | 41.15748 | 2.05607 | 10542 ft | 378 kts | 179° |
| 2026-05-04 15:34 | 41.10005 | 2.04843 | 13631 ft | 462 kts | 188° |
| 2026-05-04 15:35 | 41.03423 | 2.05358 | 16634 ft | 450 kts | 160° |
| 2026-05-04 15:35 | 41.00902 | 2.07515 | 18247 ft | 438 kts | 140° |
| 2026-05-04 15:35 | 40.98778 | 2.10613 | 18970 ft | 470 kts | 131° |
| 2026-05-04 15:36 | 40.96000 | 2.18920 | 18999 ft | 545 kts | 101° |
| 2026-05-04 15:36 | 40.95946 | 2.23971 | 19018 ft | 553 kts | 82° |
| 2026-05-04 15:36 | 40.96936 | 2.28805 | 19023 ft | 555 kts | 68° |
| 2026-05-04 15:37 | 40.98770 | 2.33303 | 19011 ft | 556 kts | 52° |
| 2026-05-04 15:37 | 41.01438 | 2.36983 | 19023 ft | 555 kts | 39° |
| 2026-05-04 15:37 | 41.04373 | 2.40306 | 18998 ft | 556 kts | 41° |
| 2026-05-04 15:37 | 41.07184 | 2.43978 | 19959 ft | 579 kts | 46° |
| 2026-05-04 15:38 | 41.09973 | 2.47956 | 21510 ft | 599 kts | 46° |
| 2026-05-04 15:38 | 41.12847 | 2.51932 | 23117 ft | 579 kts | 45° |
| 2026-05-04 15:38 | 41.15659 | 2.55766 | 24570 ft | 587 kts | 45° |
| 2026-05-04 15:38 | 41.18563 | 2.59703 | 26019 ft | 605 kts | 45° |
| 2026-05-04 15:39 | 41.21497 | 2.63673 | 27517 ft | 617 kts | 45° |
| 2026-05-04 15:39 | 41.24538 | 2.67789 | 29052 ft | 632 kts | 45° |
| 2026-05-04 15:39 | 41.30774 | 2.76249 | 31734 ft | 643 kts | 45° |
| 2026-05-04 15:40 | 41.33924 | 2.80532 | 33096 ft | 649 kts | 46° |
| 2026-05-04 15:40 | 41.37114 | 2.84875 | 34029 ft | 665 kts | 46° |
| 2026-05-04 15:40 | 41.40396 | 2.89354 | 34747 ft | 685 kts | 45° |
| 2026-05-04 15:40 | 41.43789 | 2.93993 | 34937 ft | 715 kts | 45° |
| 2026-05-04 15:41 | 41.47329 | 2.98840 | 34948 ft | 746 kts | 45° |
| 2026-05-04 15:41 | 41.50969 | 3.03833 | 35126 ft | 773 kts | 45° |
| 2026-05-04 15:41 | 41.54763 | 3.09046 | 35757 ft | 794 kts | 45° |
| 2026-05-04 15:41 | 41.58615 | 3.14365 | 36401 ft | 784 kts | 45° |
| 2026-05-04 15:42 | 41.62371 | 3.19613 | 36953 ft | 787 kts | 45° |
| 2026-05-04 15:42 | 41.66218 | 3.24964 | 36936 ft | 804 kts | 45° |
| 2026-05-04 15:42 | 41.70131 | 3.30399 | 36939 ft | 814 kts | 45° |
| 2026-05-04 15:43 | 41.78190 | 3.41019 | 36947 ft | 814 kts | 39° |
| 2026-05-04 15:43 | 41.86953 | 3.50459 | 36939 ft | 814 kts | 38° |
| 2026-05-04 15:44 | 41.95631 | 3.60255 | 36955 ft | 816 kts | 40° |
| 2026-05-04 15:44 | 42.04250 | 3.70188 | 36940 ft | 819 kts | 39° |
| 2026-05-04 15:44 | 42.08546 | 3.75109 | 36924 ft | 807 kts | 39° |
| 2026-05-04 15:45 | 42.12836 | 3.80024 | 36934 ft | 811 kts | 39° |
| 2026-05-04 15:45 | 42.21356 | 3.89805 | 36924 ft | 810 kts | 39° |
| 2026-05-04 15:46 | 42.29953 | 3.99705 | 36923 ft | 812 kts | 39° |
| 2026-05-04 15:46 | 42.38529 | 4.09657 | 36943 ft | 812 kts | 39° |
| 2026-05-04 15:47 | 42.47093 | 4.19624 | 36912 ft | 813 kts | 39° |
| 2026-05-04 15:47 | 42.55589 | 4.29547 | 36938 ft | 810 kts | 39° |
| 2026-05-04 15:48 | 42.64116 | 4.39546 | 36982 ft | 811 kts | 39° |
| 2026-05-04 15:48 | 42.76915 | 4.54631 | 36938 ft | 811 kts | 40° |
| 2026-05-04 15:49 | 42.85445 | 4.64738 | 36933 ft | 815 kts | 40° |
| 2026-05-04 15:49 | 42.89650 | 4.69726 | 36950 ft | 804 kts | 40° |
| 2026-05-04 15:49 | 42.93740 | 4.74616 | 35892 ft | 764 kts | 40° |
| 2026-05-04 15:50 | 42.97642 | 4.79286 | 34758 ft | 729 kts | 40° |
| 2026-05-04 15:50 | 43.01375 | 4.83747 | 33672 ft | 697 kts | 40° |
| 2026-05-04 15:50 | 43.04985 | 4.88060 | 32511 ft | 684 kts | 40° |
| 2026-05-04 15:50 | 43.08539 | 4.92311 | 31363 ft | 673 kts | 41° |
| 2026-05-04 15:51 | 43.12022 | 4.96513 | 30233 ft | 660 kts | 41° |
| 2026-05-04 15:51 | 43.15438 | 5.00622 | 29053 ft | 649 kts | 41° |
| 2026-05-04 15:51 | 43.18761 | 5.04618 | 27840 ft | 638 kts | 40° |
| 2026-05-04 15:51 | 43.22065 | 5.08596 | 26688 ft | 627 kts | 40° |
| 2026-05-04 15:52 | 43.25304 | 5.12513 | 25900 ft | 616 kts | 40° |
| 2026-05-04 15:52 | 43.28500 | 5.16381 | 25152 ft | 610 kts | 40° |
| 2026-05-04 15:52 | 43.31620 | 5.20157 | 24413 ft | 583 kts | 40° |
| 2026-05-04 15:52 | 43.34594 | 5.23772 | 23692 ft | 559 kts | 40° |
| 2026-05-04 15:53 | 43.37452 | 5.27250 | 22861 ft | 539 kts | 40° |
| 2026-05-04 15:53 | 43.40217 | 5.30610 | 22032 ft | 523 kts | 41° |
| 2026-05-04 15:53 | 43.42914 | 5.33890 | 21232 ft | 513 kts | 41° |
| 2026-05-04 15:53 | 43.45518 | 5.37075 | 20485 ft | 504 kts | 41° |
| 2026-05-04 15:54 | 43.48124 | 5.40255 | 19742 ft | 498 kts | 41° |
| 2026-05-04 15:54 | 43.50596 | 5.43533 | 19287 ft | 493 kts | 53° |
| 2026-05-04 15:54 | 43.52281 | 5.47594 | 18861 ft | 487 kts | 73° |
| 2026-05-04 15:54 | 43.53222 | 5.52039 | 18423 ft | 481 kts | 78° |
| 2026-05-04 15:55 | 43.54124 | 5.56453 | 17921 ft | 477 kts | 74° |
| 2026-05-04 15:55 | 43.55264 | 5.60741 | 17369 ft | 475 kts | 70° |
| 2026-05-04 15:55 | 43.56487 | 5.64947 | 16858 ft | 471 kts | 71° |
| 2026-05-04 15:55 | 43.57560 | 5.69187 | 16335 ft | 465 kts | 81° |
| 2026-05-04 15:56 | 43.57822 | 5.73514 | 15844 ft | 456 kts | 94° |
| 2026-05-04 15:56 | 43.57761 | 5.77873 | 15358 ft | 454 kts | 93° |
| 2026-05-04 15:56 | 43.57840 | 5.82209 | 14871 ft | 452 kts | 89° |
| 2026-05-04 15:56 | 43.58104 | 5.86515 | 14385 ft | 450 kts | 87° |
| 2026-05-04 15:57 | 43.58352 | 5.90797 | 13891 ft | 445 kts | 88° |
| 2026-05-04 15:57 | 43.58558 | 5.95046 | 13326 ft | 443 kts | 89° |
| 2026-05-04 15:57 | 43.58746 | 5.99258 | 12738 ft | 438 kts | 89° |
| 2026-05-04 15:57 | 43.58920 | 6.03423 | 12163 ft | 433 kts | 89° |
| 2026-05-04 15:58 | 43.59088 | 6.07553 | 11597 ft | 428 kts | 89° |
| 2026-05-04 15:58 | 43.59082 | 6.11566 | 11035 ft | 410 kts | 103° |
| 2026-05-04 15:58 | 43.58221 | 6.15122 | 10793 ft | 384 kts | 117° |
| 2026-05-04 15:58 | 43.57132 | 6.18370 | 10713 ft | 362 kts | 117° |
| 2026-05-04 15:59 | 43.56182 | 6.21479 | 10711 ft | 342 kts | 114° |
| 2026-05-04 15:59 | 43.55399 | 6.24488 | 10715 ft | 325 kts | 111° |
| 2026-05-04 15:59 | 43.54679 | 6.27355 | 10703 ft | 309 kts | 113° |
| 2026-05-04 15:59 | 43.53970 | 6.30069 | 10689 ft | 294 kts | 113° |
| 2026-05-04 16:00 | 43.53277 | 6.32683 | 10430 ft | 291 kts | 113° |
| 2026-05-04 16:00 | 43.52574 | 6.35283 | 10073 ft | 288 kts | 114° |
| 2026-05-04 16:00 | 43.51883 | 6.37813 | 9698 ft | 284 kts | 113° |
| 2026-05-04 16:00 | 43.51197 | 6.40343 | 9307 ft | 280 kts | 113° |
| 2026-05-04 16:01 | 43.50521 | 6.42833 | 8922 ft | 276 kts | 114° |
| 2026-05-04 16:01 | 43.49706 | 6.45171 | 8551 ft | 265 kts | 133° |
| 2026-05-04 16:01 | 43.48432 | 6.46935 | 8195 ft | 257 kts | 139° |
| 2026-05-04 16:01 | 43.47115 | 6.48587 | 8068 ft | 253 kts | 137° |
| 2026-05-04 16:02 | 43.45839 | 6.50322 | 8094 ft | 260 kts | 134° |
| 2026-05-04 16:02 | 43.44630 | 6.52138 | 8089 ft | 255 kts | 133° |
| 2026-05-04 16:02 | 43.42227 | 6.55814 | 8078 ft | 258 kts | 134° |
| 2026-05-04 16:03 | 43.41001 | 6.57639 | 8073 ft | 256 kts | 134° |
| 2026-05-04 16:03 | 43.39818 | 6.59396 | 8057 ft | 248 kts | 134° |
| 2026-05-04 16:03 | 43.38942 | 6.61409 | 8057 ft | 252 kts | 104° |
| 2026-05-04 16:03 | 43.38886 | 6.63873 | 7801 ft | 260 kts | 89° |
| 2026-05-04 16:04 | 43.39031 | 6.66352 | 7524 ft | 260 kts | 88° |
| 2026-05-04 16:04 | 43.39103 | 6.71214 | 6789 ft | 252 kts | 95° |
| 2026-05-04 16:04 | 43.39029 | 6.73608 | 6439 ft | 250 kts | 95° |
| 2026-05-04 16:05 | 43.38974 | 6.75997 | 6011 ft | 249 kts | 94° |
| 2026-05-04 16:05 | 43.38936 | 6.78352 | 5623 ft | 244 kts | 93° |
| 2026-05-04 16:05 | 43.38877 | 6.82910 | 4891 ft | 230 kts | 92° |
| 2026-05-04 16:06 | 43.38848 | 6.85092 | 4493 ft | 230 kts | 92° |
| 2026-05-04 16:06 | 43.40697 | 6.89984 | 4040 ft | 233 kts | 43° |
| 2026-05-04 16:07 | 43.42208 | 6.91968 | 4024 ft | 221 kts | 47° |
| 2026-05-04 16:07 | 43.45359 | 6.96381 | 4015 ft | 215 kts | 49° |
| 2026-05-04 16:08 | 43.46420 | 6.97803 | 4008 ft | 210 kts | 48° |
| 2026-05-04 16:08 | 43.49720 | 7.01949 | 3972 ft | 217 kts | 45° |
| 2026-05-04 16:09 | 43.52007 | 7.04550 | 3334 ft | 213 kts | 44° |
| 2026-05-04 16:09 | 43.54200 | 7.07229 | 2767 ft | 206 kts | 46° |
| 2026-05-04 16:10 | 43.56276 | 7.09898 | 2231 ft | 200 kts | 47° |
| 2026-05-04 16:11 | 43.59293 | 7.13746 | 1422 ft | 198 kts | 46° |
| 2026-05-04 16:11 | 43.60293 | 7.15001 | 1127 ft | 196 kts | 46° |
| 2026-05-04 16:12 | 43.63526 | 7.18661 | 393 ft | 199 kts | 47° |
| 2026-05-04 16:12 | 43.65932 | 7.21982 | 30 ft | 62 kts | 44° |
| 2026-05-04 16:13 | 43.66372 | 7.22586 | 29 ft | 39 kts | 45° |
| 2026-05-04 16:13 | 43.66585 | 7.22708 | 28 ft | 10 kts | 321° |
| 2026-05-04 16:14 | 43.66676 | 7.22590 | 28 ft | 10 kts | 316° |
| 2026-05-04 16:14 | 43.66777 | 7.22447 | 27 ft | 14 kts | 314° |
| 2026-05-04 16:15 | 43.66712 | 7.22189 | 28 ft | 16 kts | 224° |
| 2026-05-04 16:16 | 43.66612 | 7.21968 | 28 ft | 11 kts | 294° |
| 2026-05-04 16:16 | 43.66585 | 7.21701 | 28 ft | 7 kts | 299° |
| 2026-05-04 16:17 | 43.66608 | 7.21666 | 28 ft | 0 kts | 311° |